createdAt,value
2023-01-08T00:00:52.880Z,102431.58
2023-01-08T00:03:59.755Z,102431.58
2023-01-08T00:07:07.127Z,102435.56
2023-01-08T00:10:13.279Z,102435.12
2023-01-08T00:13:21.191Z,102442.66
2023-01-08T00:16:29.387Z,102445.27
2023-01-08T00:19:34.494Z,102445.27
2023-01-08T00:22:40.728Z,102447.07
2023-01-08T00:25:48.015Z,102448.41
2023-01-08T00:28:53.531Z,102441.32
2023-01-08T00:32:02.153Z,102442.66
2023-01-08T00:35:08.418Z,102428.95
2023-01-08T00:38:14.824Z,102427.65
2023-01-08T00:41:21.543Z,102425.84
2023-01-08T00:44:27.448Z,102427.19
2023-01-08T00:47:33.923Z,102426.28
2023-01-08T00:50:39.838Z,102425.83
2023-01-08T00:53:48.132Z,102420.97
2023-01-08T00:56:54.789Z,102427.13
2023-01-08T01:00:00.637Z,102421.82
2023-01-08T01:03:07.613Z,102405.01
2023-01-08T01:06:17.080Z,102404.57
2023-01-08T01:09:25.966Z,102404.57
2023-01-08T01:12:31.675Z,102405.45
2023-01-08T01:15:38.704Z,102406.30
2023-01-08T01:18:37.981Z,102415.58
2023-01-08T01:21:44.381Z,102413.83
2023-01-08T01:24:50.203Z,102423.11
2023-01-08T01:27:55.923Z,102423.55
2023-01-08T01:31:10.251Z,102423.55
2023-01-08T01:34:15.398Z,102412.94
2023-01-08T01:37:21.321Z,102407.64
2023-01-08T01:40:26.482Z,102398.78
2023-01-08T01:43:53.431Z,102397.88
2023-01-08T01:46:58.907Z,102396.53
2023-01-08T01:50:22.052Z,102392.52
2023-01-08T01:53:31.301Z,102396.90
2023-01-08T01:56:36.687Z,102396.89
2023-01-08T01:59:42.046Z,102409.76
2023-01-08T02:02:48.428Z,102409.33
2023-01-08T02:06:16.565Z,102409.33
2023-01-08T02:09:51.685Z,102423.05
2023-01-08T02:13:04.835Z,102434.55
2023-01-08T02:16:14.713Z,102434.55
2023-01-08T02:19:54.759Z,102425.73
2023-01-08T02:23:46.141Z,102440.74
2023-01-08T02:26:51.653Z,102441.63
2023-01-08T02:29:57.768Z,102447.81
2023-01-08T02:33:03.878Z,102442.57
2023-01-08T02:36:32.547Z,102451.88
2023-01-08T02:40:21.964Z,102440.88
2023-01-08T02:43:34.826Z,102440.88
2023-01-08T02:46:42.604Z,102436.45
2023-01-08T02:49:49.481Z,102436.45
2023-01-08T02:53:17.026Z,102433.37
2023-01-08T02:56:25.814Z,102431.60
2023-01-08T02:59:31.697Z,102427.19
2023-01-08T03:02:41.205Z,102418.79
2023-01-08T03:05:46.807Z,102426.27
2023-01-08T03:08:57.248Z,102424.05
2023-01-08T03:12:12.270Z,102424.05
2023-01-08T03:15:22.583Z,102429.34
2023-01-08T03:18:29.690Z,102418.28
2023-01-08T03:21:36.022Z,102422.23
2023-01-08T03:24:46.015Z,102422.71
2023-01-08T03:27:54.806Z,102410.30
2023-01-08T03:31:00.648Z,102409.44
2023-01-08T03:34:06.648Z,102412.55
2023-01-08T03:37:15.004Z,102414.33
2023-01-08T03:40:34.203Z,102419.63
2023-01-08T03:43:39.192Z,102421.83
2023-01-08T03:46:46.973Z,102423.54
2023-01-08T03:49:53.708Z,102422.66
2023-01-08T03:53:01.915Z,102422.66
2023-01-08T03:56:09.616Z,102423.55
2023-01-08T03:59:14.708Z,102428.42
2023-01-08T04:02:21.108Z,102418.71
2023-01-08T04:05:27.717Z,102431.52
2023-01-08T04:08:33.657Z,102417.38
2023-01-08T04:11:38.997Z,102417.38
2023-01-08T04:14:44.256Z,102428.48
2023-01-08T04:17:50.836Z,102424.50
2023-01-08T04:21:01.515Z,102430.24
2023-01-08T04:24:08.705Z,102441.73
2023-01-08T04:27:16.414Z,102445.73
2023-01-08T04:30:22.365Z,102445.30
2023-01-08T04:33:27.947Z,102437.32
2023-01-08T04:36:33.333Z,102440.88
2023-01-08T04:39:41.234Z,102442.65
2023-01-08T04:42:46.318Z,102450.18
2023-01-08T04:45:52.400Z,102447.95
2023-01-08T04:48:58.932Z,102450.17
2023-01-08T04:52:05.931Z,102446.20
2023-01-08T04:55:12.419Z,102442.66
2023-01-08T04:58:18.898Z,102444.84
2023-01-08T05:01:35.379Z,102451.48
2023-01-08T05:04:35.153Z,102452.80
2023-01-08T05:07:22.575Z,102462.09
2023-01-08T05:10:17.711Z,102462.95
2023-01-08T05:13:09.223Z,102468.25
2023-01-08T05:16:01.940Z,102474.44
2023-01-08T05:19:07.110Z,102470.04
2023-01-08T05:22:16.537Z,102467.82
2023-01-08T05:25:24.462Z,102471.80
2023-01-08T05:28:31.006Z,102469.14
2023-01-08T05:31:38.384Z,102472.64
2023-01-08T05:34:44.755Z,102478.36
2023-01-08T05:37:51.295Z,102482.34
2023-01-08T05:40:59.050Z,102493.83
2023-01-08T05:44:06.165Z,102496.91
2023-01-08T05:47:14.442Z,102503.53
2023-01-08T05:50:23.151Z,102498.23
2023-01-08T05:53:29.478Z,102500.87
2023-01-08T05:56:35.878Z,102512.80
2023-01-08T05:59:43.087Z,102509.25
2023-01-08T06:02:49.485Z,102509.23
2023-01-08T06:05:56.112Z,102510.14
2023-01-08T06:09:03.140Z,102500.87
2023-01-08T06:12:09.146Z,102498.66
2023-01-08T06:15:14.736Z,102503.55
2023-01-08T06:18:20.528Z,102503.52
2023-01-08T06:21:26.700Z,102496.48
2023-01-08T06:24:32.207Z,102499.12
2023-01-08T06:27:40.698Z,102492.08
2023-01-08T06:30:48.496Z,102499.14
2023-01-08T06:33:55.421Z,102494.31
2023-01-08T06:37:01.693Z,102497.39
2023-01-08T06:40:08.640Z,102493.89
2023-01-08T06:43:18.276Z,102490.33
2023-01-08T06:46:23.648Z,102482.81
2023-01-08T06:49:31.665Z,102485.03
2023-01-08T06:52:39.567Z,102485.04
2023-01-08T06:55:45.464Z,102491.66
2023-01-08T06:58:51.104Z,102498.28
2023-01-08T07:01:59.300Z,102495.64
2023-01-08T07:05:04.113Z,102504.48
2023-01-08T07:08:11.107Z,102503.16
2023-01-08T07:11:20.475Z,102507.56
2023-01-08T07:14:26.835Z,102519.52
2023-01-08T07:17:33.907Z,102514.22
2023-01-08T07:20:39.676Z,102519.52
2023-01-08T07:23:46.424Z,102518.64
2023-01-08T07:26:52.027Z,102514.66
2023-01-08T07:29:57.806Z,102513.33
2023-01-08T07:33:03.204Z,102515.55
2023-01-08T07:36:09.187Z,102515.54
2023-01-08T07:39:15.860Z,102514.23
2023-01-08T07:42:23.052Z,102512.44
2023-01-08T07:45:32.116Z,102511.52
2023-01-08T07:48:38.568Z,102522.57
2023-01-08T07:51:45.953Z,102522.57
2023-01-08T07:54:52.522Z,102515.50
2023-01-08T07:57:58.837Z,102519.02
2023-01-08T08:01:05.487Z,102519.02
2023-01-08T08:04:10.633Z,102519.02
2023-01-08T08:07:16.743Z,102512.84
2023-01-08T08:10:21.310Z,102527.45
2023-01-08T08:13:28.174Z,102527.88
2023-01-08T08:16:35.207Z,102527.88
2023-01-08T08:19:40.892Z,102526.97
2023-01-08T08:22:46.017Z,102526.97
2023-01-08T08:25:51.019Z,102525.63
2023-01-08T08:28:57.015Z,102516.73
2023-01-08T08:32:02.486Z,102516.67
2023-01-08T08:35:09.300Z,102519.74
2023-01-08T08:38:17.436Z,102505.98
2023-01-08T08:41:23.459Z,102496.20
2023-01-08T08:44:30.806Z,102503.76
2023-01-08T08:47:37.329Z,102505.11
2023-01-08T08:50:47.527Z,102500.64
2023-01-08T08:53:54.712Z,102493.50
2023-01-08T08:57:02.303Z,102498.26
2023-01-08T09:00:08.088Z,102500.39
2023-01-08T09:03:15.584Z,102494.16
2023-01-08T09:06:27.945Z,102482.17
2023-01-08T09:09:34.458Z,102489.23
2023-01-08T09:12:40.530Z,102486.11
2023-01-08T09:15:46.807Z,102468.77
2023-01-08T09:18:55.433Z,102473.14
2023-01-08T09:22:00.407Z,102472.66
2023-01-08T09:25:06.661Z,102473.05
2023-01-08T09:28:19.831Z,102469.09
2023-01-08T09:31:26.504Z,102464.66
2023-01-08T09:34:33.164Z,102463.23
2023-01-08T09:37:39.336Z,102452.12
2023-01-08T09:40:56.004Z,102456.55
2023-01-08T09:44:06.540Z,102466.27
2023-01-08T09:47:13.039Z,102467.56
2023-01-08T09:50:20.714Z,102457.27
2023-01-08T09:53:29.593Z,102465.17
2023-01-08T09:56:34.819Z,102465.17
2023-01-08T09:59:42.603Z,102469.52
2023-01-08T10:02:51.059Z,102456.13
2023-01-08T10:05:56.080Z,102462.67
2023-01-08T10:09:01.916Z,102459.02
2023-01-08T10:12:06.786Z,102459.44
2023-01-08T10:15:21.694Z,102451.92
2023-01-08T10:18:28.555Z,102446.13
2023-01-08T10:21:36.285Z,102462.94
2023-01-08T10:24:50.098Z,102465.62
2023-01-08T10:28:14.714Z,102462.41
2023-01-08T10:31:25.441Z,102451.11
2023-01-08T10:35:11.881Z,102440.52
2023-01-08T10:38:19.277Z,102438.92
2023-01-08T10:41:26.937Z,102426.92
2023-01-08T10:44:32.964Z,102432.30
2023-01-08T10:47:39.199Z,102430.83
2023-01-08T10:50:47.020Z,102427.62
2023-01-08T10:53:52.925Z,102439.70
2023-01-08T10:57:02.299Z,102438.72
2023-01-08T11:00:06.767Z,102432.42
2023-01-08T11:03:16.085Z,102428.38
2023-01-08T11:06:30.571Z,102434.11
2023-01-08T11:09:41.300Z,102420.47
2023-01-08T11:12:55.205Z,102420.56
2023-01-08T11:16:01.668Z,102404.76
2023-01-08T11:19:09.027Z,102398.56
2023-01-08T11:22:40.241Z,102401.80
2023-01-08T11:25:46.831Z,102399.45
2023-01-08T11:29:32.135Z,102408.41
2023-01-08T11:33:22.069Z,102404.46
2023-01-08T11:36:36.996Z,102391.95
2023-01-08T11:39:43.917Z,102399.69
2023-01-08T11:43:09.103Z,102392.92
2023-01-08T11:46:33.574Z,102386.69
2023-01-08T11:49:51.206Z,102381.34
2023-01-08T11:53:42.421Z,102384.94
2023-01-08T11:57:02.352Z,102383.09
2023-01-08T12:00:15.409Z,102391.48
2023-01-08T12:03:41.724Z,102387.20
2023-01-08T12:07:13.583Z,102383.70
2023-01-08T12:10:44.888Z,102385.47
2023-01-08T12:14:07.139Z,102377.98
2023-01-08T12:17:45.825Z,102380.30
2023-01-08T12:21:06.917Z,102382.25
2023-01-08T12:24:57.863Z,102389.66
2023-01-08T12:28:32.034Z,102385.03
2023-01-08T12:32:14.641Z,102393.83
2023-01-08T12:35:43.735Z,102402.27
2023-01-08T12:39:00.802Z,102396.78
2023-01-08T12:42:07.047Z,102405.58
2023-01-08T12:45:13.966Z,102386.77
2023-01-08T12:48:35.746Z,102386.61
2023-01-08T12:51:49.520Z,102393.86
2023-01-08T12:55:33.333Z,102380.12
2023-01-08T12:59:02.943Z,102387.24
2023-01-08T13:02:50.642Z,102378.30
2023-01-08T13:05:57.112Z,102380.41
2023-01-08T13:09:08.216Z,102382.97
2023-01-08T13:12:14.797Z,102384.72
2023-01-08T13:15:21.692Z,102386.84
2023-01-08T13:18:37.217Z,102386.95
2023-01-08T13:21:55.041Z,102391.96
2023-01-08T13:25:03.095Z,102391.96
2023-01-08T13:28:10.544Z,102393.38
2023-01-08T13:31:37.040Z,102397.94
2023-01-08T13:34:53.811Z,102406.72
2023-01-08T13:38:06.856Z,102403.53
2023-01-08T13:41:12.489Z,102400.42
2023-01-08T13:44:41.768Z,102398.90
2023-01-08T13:47:49.478Z,102390.16
2023-01-08T13:50:54.730Z,102398.50
2023-01-08T13:54:03.969Z,102397.81
2023-01-08T13:57:10.555Z,102392.15
2023-01-08T14:00:15.669Z,102386.48
2023-01-08T14:03:20.381Z,102389.23
2023-01-08T14:06:35.015Z,102392.07
2023-01-08T14:09:40.897Z,102387.38
2023-01-08T14:12:45.601Z,102391.11
2023-01-08T14:15:51.608Z,102389.07
2023-01-08T14:19:00.177Z,102387.90
2023-01-08T14:22:14.331Z,102398.72
2023-01-08T14:25:21.719Z,102396.23
2023-01-08T14:28:33.609Z,102396.35
2023-01-08T14:31:40.434Z,102400.86
2023-01-08T14:34:48.002Z,102410.63
2023-01-08T14:37:55.050Z,102406.32
2023-01-08T14:41:25.281Z,102414.84
2023-01-08T14:44:38.022Z,102412.59
2023-01-08T14:47:40.213Z,102406.45
2023-01-08T14:50:56.395Z,102409.13
2023-01-08T14:54:06.109Z,102406.05
2023-01-08T14:57:12.645Z,102412.77
2023-01-08T15:00:17.449Z,102411.95
2023-01-08T15:03:47.107Z,102415.10
2023-01-08T15:06:53.770Z,102421.41
2023-01-08T15:10:01.828Z,102424.58
2023-01-08T15:13:13.282Z,102426.84
2023-01-08T15:16:27.358Z,102425.53
2023-01-08T15:19:37.192Z,102429.13
2023-01-08T15:22:44.800Z,102424.66
2023-01-08T15:25:50.340Z,102417.56
2023-01-08T15:29:06.857Z,102413.58
2023-01-08T15:32:12.498Z,102413.58
2023-01-08T15:35:33.106Z,102406.03
2023-01-08T15:38:41.389Z,102398.61
2023-01-08T15:42:09.077Z,102403.12
2023-01-08T15:45:14.796Z,102406.23
2023-01-08T15:48:21.366Z,102395.17
2023-01-08T15:51:28.339Z,102397.43
2023-01-08T15:54:35.011Z,102393.53
2023-01-08T15:57:44.781Z,102403.85
2023-01-08T16:00:49.866Z,102399.44
2023-01-08T16:03:56.888Z,102403.42
2023-01-08T16:07:06.591Z,102404.73
2023-01-08T16:10:13.273Z,102409.14
2023-01-08T16:13:19.002Z,102404.73
2023-01-08T16:16:27.319Z,102397.64
2023-01-08T16:19:36.445Z,102399.90
2023-01-08T16:22:42.658Z,102399.07
2023-01-08T16:25:49.312Z,102400.02
2023-01-08T16:28:54.391Z,102404.03
2023-01-08T16:32:02.823Z,102393.89
2023-01-08T16:35:10.019Z,102391.66
2023-01-08T16:38:17.380Z,102392.55
2023-01-08T16:41:24.482Z,102399.20
2023-01-08T16:44:35.338Z,102404.95
2023-01-08T16:47:41.498Z,102394.73
2023-01-08T16:50:48.890Z,102382.43
2023-01-08T16:53:56.146Z,102387.35
2023-01-08T16:57:01.907Z,102390.05
2023-01-08T17:00:07.199Z,102380.77
2023-01-08T17:03:13.392Z,102369.25
2023-01-08T17:06:20.622Z,102359.52
2023-01-08T17:09:26.979Z,102369.71
2023-01-08T17:12:32.977Z,102373.25
2023-01-08T17:15:40.615Z,102373.33
2023-01-08T17:18:46.236Z,102365.84
2023-01-08T17:21:54.994Z,102365.91
2023-01-08T17:24:55.231Z,102354.45
2023-01-08T17:27:45.240Z,102369.52
2023-01-08T17:30:38.132Z,102368.64
2023-01-08T17:33:23.924Z,102359.81
2023-01-08T17:36:22.537Z,102355.39
2023-01-08T17:39:10.227Z,102358.06
2023-01-08T17:42:21.198Z,102352.77
2023-01-08T17:45:27.454Z,102353.70
2023-01-08T17:48:34.277Z,102346.62
2023-01-08T17:51:40.713Z,102348.84
2023-01-08T17:54:47.047Z,102357.71
2023-01-08T17:57:54.074Z,102355.94
2023-01-08T18:01:02.132Z,102354.24
2023-01-08T18:04:07.488Z,102348.53
2023-01-08T18:07:12.513Z,102378.70
2023-01-08T18:10:20.229Z,102378.70
2023-01-08T18:13:28.011Z,102380.05
2023-01-08T18:16:33.811Z,102370.34
2023-01-08T18:19:39.999Z,102370.34
2023-01-08T18:22:47.046Z,102378.81
2023-01-08T18:25:57.421Z,102378.81
2023-01-08T18:29:04.901Z,102383.23
2023-01-08T18:32:12.305Z,102390.30
2023-01-08T18:35:21.413Z,102402.28
2023-01-08T18:38:26.853Z,102409.36
2023-01-08T18:41:58.255Z,102408.49
2023-01-08T18:45:05.714Z,102407.58
2023-01-08T18:48:11.675Z,102421.28
2023-01-08T18:51:18.750Z,102415.11
2023-01-08T18:54:26.602Z,102414.64
2023-01-08T18:57:32.511Z,102419.10
2023-01-08T19:00:40.592Z,102417.30
2023-01-08T19:03:46.958Z,102418.62
2023-01-08T19:06:52.181Z,102416.83
2023-01-08T19:09:58.106Z,102410.16
2023-01-08T19:13:03.574Z,102439.32
2023-01-08T19:16:08.373Z,102439.32
2023-01-08T19:19:13.930Z,102431.79
2023-01-08T19:22:21.712Z,102442.02
2023-01-08T19:25:28.998Z,102442.02
2023-01-08T19:28:36.182Z,102439.81
2023-01-08T19:31:42.168Z,102445.16
2023-01-08T19:34:49.062Z,102459.34
2023-01-08T19:37:56.023Z,102459.34
2023-01-08T19:41:02.881Z,102458.02
2023-01-08T19:44:12.396Z,102459.78
2023-01-08T19:47:18.895Z,102459.78
2023-01-08T19:50:26.347Z,102464.19
2023-01-08T19:53:32.285Z,102454.50
2023-01-08T19:56:38.833Z,102444.79
2023-01-08T19:59:44.964Z,102439.47
2023-01-08T20:02:49.990Z,102441.66
2023-01-08T20:05:56.782Z,102438.59
2023-01-08T20:09:09.116Z,102441.20
2023-01-08T20:12:15.277Z,102441.20
2023-01-08T20:15:24.309Z,102436.32
2023-01-08T20:18:30.769Z,102416.80
2023-01-08T20:21:36.112Z,102416.80
2023-01-08T20:24:43.704Z,102420.34
2023-01-08T20:27:48.869Z,102420.34
2023-01-08T20:30:56.181Z,102423.02
2023-01-08T20:34:02.283Z,102426.10
2023-01-08T20:37:08.276Z,102419.92
2023-01-08T20:40:13.995Z,102413.29
2023-01-08T20:43:21.062Z,102411.06
2023-01-08T20:46:26.724Z,102411.06
2023-01-08T20:49:33.937Z,102409.78
2023-01-08T20:52:43.794Z,102409.78
2023-01-08T20:55:50.551Z,102404.94
2023-01-08T20:58:59.413Z,102397.44
2023-01-08T21:02:08.379Z,102406.31
2023-01-08T21:05:15.245Z,102407.62
2023-01-08T21:08:21.308Z,102401.44
2023-01-08T21:11:29.876Z,102403.66
2023-01-08T21:14:36.000Z,102410.27
2023-01-08T21:17:41.309Z,102403.20
2023-01-08T21:20:46.871Z,102403.20
2023-01-08T21:23:52.151Z,102402.76
2023-01-08T21:27:00.308Z,102415.10
2023-01-08T21:30:08.797Z,102415.10
2023-01-08T21:33:16.149Z,102418.66
2023-01-08T21:36:25.970Z,102421.33
2023-01-08T21:39:34.951Z,102430.66
2023-01-08T21:43:00.236Z,102436.41
2023-01-08T21:46:13.513Z,102436.41
2023-01-08T21:49:18.842Z,102441.29
2023-01-08T21:52:42.483Z,102436.87
2023-01-08T21:55:49.825Z,102440.81
2023-01-08T21:58:55.836Z,102440.81
2023-01-08T22:02:03.311Z,102435.09
2023-01-08T22:05:12.974Z,102440.84
2023-01-08T22:08:21.707Z,102434.66
2023-01-08T22:11:31.074Z,102435.99
2023-01-08T22:14:37.325Z,102447.50
2023-01-08T22:17:45.058Z,102444.84
2023-01-08T22:20:51.222Z,102435.54
2023-01-08T22:23:59.142Z,102435.54
2023-01-08T22:27:05.928Z,102422.27
2023-01-08T22:30:10.872Z,102418.70
2023-01-08T22:33:16.850Z,102410.75
2023-01-08T22:36:25.595Z,102410.75
2023-01-08T22:39:31.078Z,102418.74
2023-01-08T22:42:38.936Z,102418.74
2023-01-08T22:45:44.147Z,102417.00
2023-01-08T22:48:51.182Z,102417.00
2023-01-08T22:51:57.118Z,102417.01
2023-01-08T22:55:05.354Z,102417.44
2023-01-08T22:58:11.609Z,102419.67
2023-01-08T23:01:18.517Z,102412.14
2023-01-08T23:04:25.043Z,102400.69
2023-01-08T23:07:31.144Z,102400.69
2023-01-08T23:10:38.214Z,102404.19
2023-01-08T23:13:46.184Z,102409.95
2023-01-08T23:16:51.819Z,102409.95
2023-01-08T23:19:57.845Z,102391.84
2023-01-08T23:23:04.946Z,102391.84
2023-01-08T23:26:10.905Z,102383.45
2023-01-08T23:29:17.826Z,102372.86
2023-01-08T23:32:23.824Z,102372.86
2023-01-08T23:35:33.080Z,102383.88
2023-01-08T23:38:38.895Z,102365.29
2023-01-08T23:41:45.667Z,102360.42
2023-01-08T23:44:51.784Z,102360.84
2023-01-08T23:47:58.757Z,102360.84
2023-01-08T23:51:04.034Z,102360.86
2023-01-08T23:54:10.410Z,102348.93
2023-01-08T23:57:17.266Z,102354.23
